createdAt,value
2017-11-10T00:01:20.381Z,98458.38
2017-11-10T00:03:48.685Z,98452.91
2017-11-10T00:06:16.975Z,98456.88
2017-11-10T00:08:46.026Z,98461.51
2017-11-10T00:11:14.309Z,98458.53
2017-11-10T00:13:42.597Z,98463.96
2017-11-10T00:16:10.890Z,98453.67
2017-11-10T00:18:39.183Z,98460.98
2017-11-10T00:21:07.477Z,98463.86
2017-11-10T00:23:35.765Z,98461.64
2017-11-10T00:26:04.059Z,98461.73
2017-11-10T00:28:32.341Z,98466.99
2017-11-10T00:31:00.632Z,98471.66
2017-11-10T00:33:28.921Z,98460.56
2017-11-10T00:35:57.218Z,98466.09
2017-11-10T00:38:25.506Z,98463.63
2017-11-10T00:40:53.785Z,98461.56
2017-11-10T00:43:22.070Z,98452.80
2017-11-10T00:45:50.353Z,98449.27
2017-11-10T00:48:18.645Z,98452.30
2017-11-10T00:50:46.945Z,98460.59
2017-11-10T00:53:15.245Z,98463.06
2017-11-10T00:55:43.537Z,98470.84
2017-11-10T00:58:11.813Z,98465.36
2017-11-10T01:00:40.098Z,98461.18
2017-11-10T01:03:08.378Z,98461.18
2017-11-10T01:05:36.689Z,98462.50
2017-11-10T01:08:12.355Z,98454.45
2017-11-10T01:10:40.661Z,98448.45
2017-11-10T01:13:08.949Z,98456.38
2017-11-10T01:15:37.239Z,98459.83
2017-11-10T01:18:05.514Z,98450.20
2017-11-10T01:20:36.669Z,98436.27
2017-11-10T01:23:04.952Z,98423.97
2017-11-10T01:25:33.232Z,98413.77
2017-11-10T01:28:01.520Z,98421.42
2017-11-10T01:30:29.825Z,98401.52
2017-11-10T01:32:58.865Z,98390.98
2017-11-10T01:35:27.151Z,98407.94
2017-11-10T01:37:55.442Z,98404.95
2017-11-10T01:40:23.957Z,98393.86
2017-11-10T01:42:53.018Z,98399.89
2017-11-10T01:45:22.034Z,98398.65
2017-11-10T01:47:51.085Z,98401.23
2017-11-10T01:50:19.380Z,98392.66
2017-11-10T01:52:47.667Z,98375.64
2017-11-10T01:55:15.954Z,98363.20
2017-11-10T01:57:44.241Z,98358.52
2017-11-10T02:00:12.543Z,98362.16
2017-11-10T02:02:40.829Z,98369.11
2017-11-10T02:05:09.124Z,98362.73
2017-11-10T02:07:38.520Z,98349.13
2017-11-10T02:10:06.821Z,98352.64
2017-11-10T02:12:35.754Z,98351.33
2017-11-10T02:15:04.047Z,98346.31
2017-11-10T02:17:32.340Z,98350.30
2017-11-10T02:20:00.617Z,98349.05
2017-11-10T02:22:28.911Z,98353.80
2017-11-10T02:24:57.238Z,98343.21
2017-11-10T02:27:25.525Z,98336.41
2017-11-10T02:29:53.813Z,98340.58
2017-11-10T02:32:22.094Z,98349.55
2017-11-10T02:34:51.162Z,98352.48
2017-11-10T02:37:19.453Z,98349.05
2017-11-10T02:39:47.734Z,98340.78
2017-11-10T02:42:16.802Z,98321.53
2017-11-10T02:44:45.098Z,98325.78
2017-11-10T02:47:13.382Z,98331.35
2017-11-10T02:49:41.656Z,98330.30
2017-11-10T02:52:09.944Z,98322.30
2017-11-10T02:54:38.211Z,98321.58
2017-11-10T02:57:06.495Z,98319.88
2017-11-10T02:59:34.837Z,98311.80
2017-11-10T03:02:03.150Z,98302.88
2017-11-10T03:04:31.697Z,98297.77
2017-11-10T03:07:00.007Z,98290.89
2017-11-10T03:09:28.296Z,98280.34
2017-11-10T03:11:56.581Z,98274.89
2017-11-10T03:14:24.865Z,98274.05
2017-11-10T03:16:53.140Z,98276.13
2017-11-10T03:19:21.433Z,98277.87
2017-11-10T03:21:49.713Z,98283.28
2017-11-10T03:24:18.801Z,98282.35
2017-11-10T03:26:48.010Z,98290.44
2017-11-10T03:29:16.294Z,98284.24
2017-11-10T03:31:44.582Z,98277.59
2017-11-10T03:34:12.873Z,98277.64
2017-11-10T03:36:41.162Z,98278.19
2017-11-10T03:39:09.454Z,98268.30
2017-11-10T03:41:37.737Z,98261.14
2017-11-10T03:44:06.037Z,98249.36
2017-11-10T03:46:35.090Z,98233.56
2017-11-10T03:49:04.483Z,98231.64
2017-11-10T03:51:32.774Z,98224.84
2017-11-10T03:54:01.061Z,98241.06
2017-11-10T03:56:29.352Z,98241.41
2017-11-10T03:58:57.639Z,98244.89
2017-11-10T04:01:25.933Z,98242.02
2017-11-10T04:03:54.218Z,98244.57
2017-11-10T04:06:22.519Z,98236.95
2017-11-10T04:08:50.796Z,98229.80
2017-11-10T04:11:19.077Z,98230.69
2017-11-10T04:13:47.461Z,98231.96
2017-11-10T04:16:15.764Z,98221.82
2017-11-10T04:18:44.052Z,98221.45
2017-11-10T04:21:13.193Z,98219.34
2017-11-10T04:23:41.473Z,98222.64
2017-11-10T04:26:09.770Z,98215.41
2017-11-10T04:28:38.054Z,98207.86
2017-11-10T04:31:06.341Z,98212.08
2017-11-10T04:33:34.638Z,98214.04
2017-11-10T04:36:02.932Z,98217.48
2017-11-10T04:38:31.225Z,98219.56
2017-11-10T04:40:59.556Z,98212.31
2017-11-10T04:43:28.652Z,98211.42
2017-11-10T04:45:56.956Z,98214.45
2017-11-10T04:48:25.425Z,98217.81
2017-11-10T04:50:53.748Z,98216.88
2017-11-10T04:53:22.096Z,98194.03
2017-11-10T04:55:50.905Z,98212.06
2017-11-10T04:58:19.194Z,98209.01
2017-11-10T05:00:48.093Z,98212.30
2017-11-10T05:03:16.379Z,98207.66
2017-11-10T05:05:45.427Z,98211.05
2017-11-10T05:08:13.718Z,98205.03
2017-11-10T05:10:42.015Z,98196.54
2017-11-10T05:13:10.300Z,98190.25
2017-11-10T05:15:38.622Z,98189.86
2017-11-10T05:18:06.914Z,98189.39
2017-11-10T05:20:35.244Z,98183.48
2017-11-10T05:23:03.519Z,98178.00
2017-11-10T05:25:31.805Z,98169.89
2017-11-10T05:28:00.093Z,98165.83
2017-11-10T05:30:29.586Z,98161.61
2017-11-10T05:32:58.682Z,98166.80
2017-11-10T05:35:26.990Z,98159.13
2017-11-10T05:37:55.566Z,98156.51
2017-11-10T05:40:23.893Z,98155.33
2017-11-10T05:42:52.194Z,98162.58
2017-11-10T05:45:20.726Z,98156.55
2017-11-10T05:47:49.077Z,98153.56
2017-11-10T05:50:17.356Z,98151.47
2017-11-10T05:52:45.665Z,98144.28
2017-11-10T05:55:13.942Z,98150.23
2017-11-10T05:57:42.417Z,98145.98
2017-11-10T06:00:10.705Z,98141.30
2017-11-10T06:02:38.997Z,98142.19
2017-11-10T06:05:07.289Z,98136.63
2017-11-10T06:07:35.581Z,98130.69
2017-11-10T06:10:04.646Z,98126.83
2017-11-10T06:12:32.926Z,98131.16
2017-11-10T06:15:01.196Z,98126.86
2017-11-10T06:17:29.484Z,98123.55
2017-11-10T06:19:57.757Z,98120.05
2017-11-10T06:22:26.093Z,98127.28
2017-11-10T06:24:54.397Z,98128.95
2017-11-10T06:27:22.679Z,98117.84
2017-11-10T06:29:50.958Z,98118.66
2017-11-10T06:32:19.234Z,98111.41
2017-11-10T06:34:47.520Z,98110.56
2017-11-10T06:37:15.806Z,98108.50
2017-11-10T06:39:44.857Z,98103.42
2017-11-10T06:42:13.149Z,98111.95
2017-11-10T06:44:41.437Z,98113.20
2017-11-10T06:47:09.729Z,98116.02
2017-11-10T06:49:38.922Z,98118.60
2017-11-10T06:52:07.975Z,98109.31
2017-11-10T06:54:36.260Z,98114.02
2017-11-10T06:57:04.558Z,98098.70
2017-11-10T06:59:32.846Z,98101.64
2017-11-10T07:02:01.133Z,98111.47
2017-11-10T07:04:30.174Z,98102.55
2017-11-10T07:06:59.283Z,98105.86
2017-11-10T07:09:27.575Z,98098.72
2017-11-10T07:11:55.865Z,98097.42
2017-11-10T07:14:24.913Z,98093.17
2017-11-10T07:16:53.256Z,98080.91
2017-11-10T07:19:22.311Z,98075.30
2017-11-10T07:21:50.608Z,98083.06
2017-11-10T07:24:19.649Z,98077.14
2017-11-10T07:26:47.925Z,98078.02
2017-11-10T07:29:16.193Z,98080.14
2017-11-10T07:31:44.470Z,98083.54
2017-11-10T07:34:12.745Z,98071.66
2017-11-10T07:36:41.505Z,98074.23
2017-11-10T07:39:10.553Z,98072.96
2017-11-10T07:41:40.296Z,98072.09
2017-11-10T07:44:08.576Z,98067.44
2017-11-10T07:46:36.849Z,98067.46
2017-11-10T07:49:06.636Z,98063.16
2017-11-10T07:51:34.913Z,98059.81
2017-11-10T07:54:03.205Z,98066.18
2017-11-10T07:56:31.498Z,98066.96
2017-11-10T07:58:59.799Z,98060.22
2017-11-10T08:01:29.017Z,98049.61
2017-11-10T08:03:57.297Z,98050.79
2017-11-10T08:06:25.586Z,98045.31
2017-11-10T08:08:53.883Z,98029.61
2017-11-10T08:11:22.204Z,98018.98
2017-11-10T08:13:50.500Z,98018.98
2017-11-10T08:16:18.786Z,98019.36
2017-11-10T08:18:47.061Z,98014.70
2017-11-10T08:21:15.359Z,98015.18
2017-11-10T08:23:43.650Z,98012.63
2017-11-10T08:26:11.932Z,98006.23
2017-11-10T08:28:40.218Z,97995.16
2017-11-10T08:31:09.287Z,97985.34
2017-11-10T08:33:37.574Z,97982.84
2017-11-10T08:36:05.860Z,97966.73
2017-11-10T08:38:34.169Z,97955.67
2017-11-10T08:41:02.447Z,97954.36
2017-11-10T08:43:30.738Z,97962.03
2017-11-10T08:45:59.014Z,97955.70
2017-11-10T08:48:27.318Z,97956.13
2017-11-10T08:50:55.606Z,97953.14
2017-11-10T08:53:24.660Z,97948.05
2017-11-10T08:55:52.942Z,97949.77
2017-11-10T08:58:21.218Z,97946.78
2017-11-10T09:00:50.387Z,97935.33
2017-11-10T09:03:18.677Z,97934.07
2017-11-10T09:05:46.970Z,97919.23
2017-11-10T09:08:15.293Z,97917.53
2017-11-10T09:10:43.573Z,97913.30
2017-11-10T09:13:12.622Z,97906.09
2017-11-10T09:15:40.892Z,97902.69
2017-11-10T09:18:09.162Z,97900.55
2017-11-10T09:20:37.635Z,97897.57
2017-11-10T09:23:05.920Z,97886.52
2017-11-10T09:25:35.318Z,97885.25
2017-11-10T09:28:13.909Z,97882.27
2017-11-10T09:30:42.979Z,97877.17
2017-11-10T09:33:21.169Z,97877.13
2017-11-10T09:35:55.853Z,97872.45
2017-11-10T09:38:29.523Z,97876.30
2017-11-10T09:41:14.397Z,97877.97
2017-11-10T09:43:48.213Z,97885.66
2017-11-10T09:49:29.220Z,97885.66
2017-11-10T09:55:23.965Z,97872.89
2017-11-10T09:57:57.803Z,97879.30
2017-11-10T10:00:32.955Z,97873.75
2017-11-10T10:03:07.404Z,97869.91
2017-11-10T10:05:41.228Z,97860.16
2017-11-10T10:08:17.848Z,97863.12
2017-11-10T10:14:00.412Z,97853.77
2017-11-10T10:19:47.297Z,97850.40
2017-11-10T10:22:21.159Z,97836.77
2017-11-10T10:24:49.793Z,97828.28
2017-11-10T10:27:19.711Z,97831.25
2017-11-10T10:29:48.757Z,97826.12
2017-11-10T10:32:17.039Z,97821.46
2017-11-10T10:34:45.321Z,97817.61
2017-11-10T10:37:13.601Z,97812.08
2017-11-10T10:39:41.881Z,97809.09
2017-11-10T10:42:10.190Z,97800.16
2017-11-10T10:44:40.165Z,97794.60
2017-11-10T10:47:08.449Z,97793.78
2017-11-10T10:49:36.816Z,97789.51
2017-11-10T10:52:05.109Z,97780.10
2017-11-10T10:54:33.440Z,97775.42
2017-11-10T10:57:01.733Z,97767.37
2017-11-10T10:59:30.039Z,97760.53
2017-11-10T11:01:59.253Z,97762.68
2017-11-10T11:04:27.542Z,97758.41
2017-11-10T11:06:55.834Z,97753.34
2017-11-10T11:09:24.118Z,97745.66
2017-11-10T11:11:52.408Z,97741.44
2017-11-10T11:14:20.691Z,97735.89
2017-11-10T11:16:48.970Z,97729.97
2017-11-10T11:19:17.235Z,97715.49
2017-11-10T11:21:45.529Z,97717.59
2017-11-10T11:24:13.812Z,97715.44
2017-11-10T11:26:43.025Z,97714.55
2017-11-10T11:29:11.310Z,97713.79
2017-11-10T11:31:39.680Z,97701.44
2017-11-10T11:34:07.958Z,97706.56
2017-11-10T11:36:36.246Z,97692.95
2017-11-10T11:39:04.718Z,97689.12
2017-11-10T11:41:32.999Z,97692.96
2017-11-10T11:44:01.297Z,97688.69
2017-11-10T11:46:29.584Z,97689.96
2017-11-10T11:48:57.874Z,97684.43
2017-11-10T11:51:26.169Z,97683.58
2017-11-10T11:53:54.481Z,97677.59
2017-11-10T11:56:22.764Z,97683.98
2017-11-10T11:58:53.755Z,97666.09
2017-11-10T12:01:22.049Z,97655.89
2017-11-10T12:03:50.334Z,97656.75
2017-11-10T12:06:18.627Z,97649.92
2017-11-10T12:08:46.914Z,97641.78
2017-11-10T12:11:15.193Z,97641.77
2017-11-10T12:13:44.233Z,97645.97
2017-11-10T12:16:12.517Z,97650.32
2017-11-10T12:18:41.288Z,97631.95
2017-11-10T12:21:09.853Z,97629.38
2017-11-10T12:23:38.120Z,97628.06
2017-11-10T12:26:06.405Z,97619.56
2017-11-10T12:28:34.676Z,97617.44
2017-11-10T12:31:02.969Z,97614.02
2017-11-10T12:33:31.261Z,97603.83
2017-11-10T12:35:59.534Z,97596.60
2017-11-10T12:38:27.857Z,97579.13
2017-11-10T12:40:56.390Z,97580.00
2017-11-10T12:43:24.902Z,97585.96
2017-11-10T12:45:53.177Z,97577.45
2017-11-10T12:48:21.453Z,97586.81
2017-11-10T12:50:49.726Z,97581.72
2017-11-10T12:53:18.006Z,97584.63
2017-11-10T12:55:47.289Z,97583.42
2017-11-10T12:58:15.565Z,97574.94
2017-11-10T13:00:43.853Z,97564.98
2017-11-10T13:03:12.132Z,97558.22
2017-11-10T13:05:40.409Z,97554.30
2017-11-10T13:08:08.689Z,97548.77
2017-11-10T13:10:36.973Z,97545.73
2017-11-10T13:13:05.265Z,97544.48
2017-11-10T13:15:34.319Z,97530.84
2017-11-10T13:18:02.601Z,97529.96
2017-11-10T13:20:30.890Z,97532.50
2017-11-10T13:22:59.197Z,97527.50
2017-11-10T13:25:27.464Z,97517.86
2017-11-10T13:27:56.532Z,97510.75
2017-11-10T13:30:24.831Z,97499.64
2017-11-10T13:32:53.952Z,97486.64
2017-11-10T13:35:22.226Z,97484.55
2017-11-10T13:37:50.545Z,97477.63
2017-11-10T13:40:18.830Z,97481.48
2017-11-10T13:42:47.106Z,97474.22
2017-11-10T13:45:15.385Z,97469.95
2017-11-10T13:47:43.657Z,97471.97
2017-11-10T13:50:11.933Z,97457.48
2017-11-10T13:52:40.217Z,97467.84
2017-11-10T13:55:08.497Z,97471.16
2017-11-10T13:57:36.782Z,97472.08
2017-11-10T14:00:05.067Z,97476.49
2017-11-10T14:02:34.118Z,97476.87
2017-11-10T14:05:02.417Z,97485.52
2017-11-10T14:07:30.727Z,97498.04
2017-11-10T14:09:59.009Z,97501.56
2017-11-10T14:12:27.289Z,97491.49
2017-11-10T14:14:55.586Z,97508.95
2017-11-10T14:17:24.989Z,97507.58
2017-11-10T14:19:53.259Z,97520.00
2017-11-10T14:22:21.533Z,97531.09
2017-11-10T14:24:49.807Z,97540.56
2017-11-10T14:27:18.096Z,97543.12
2017-11-10T14:29:46.365Z,97538.84
2017-11-10T14:32:14.646Z,97538.81
2017-11-10T14:34:42.929Z,97537.91
2017-11-10T14:37:11.237Z,97516.94
2017-11-10T14:39:39.537Z,97516.02
2017-11-10T14:42:07.839Z,97521.09
2017-11-10T14:44:36.121Z,97518.56
2017-11-10T14:47:04.413Z,97502.74
2017-11-10T14:49:32.696Z,97509.63
2017-11-10T14:52:00.982Z,97505.60
2017-11-10T14:54:29.269Z,97501.83
2017-11-10T14:56:57.554Z,97499.79
2017-11-10T14:59:25.849Z,97503.59
2017-11-10T15:01:54.890Z,97503.18
2017-11-10T15:04:23.187Z,97493.30
2017-11-10T15:06:51.462Z,97493.67
2017-11-10T15:09:19.741Z,97494.61
2017-11-10T15:11:48.017Z,97487.28
2017-11-10T15:14:16.305Z,97490.77
2017-11-10T15:16:46.012Z,97478.13
2017-11-10T15:19:14.285Z,97473.40
2017-11-10T15:21:42.543Z,97473.04
2017-11-10T15:24:11.430Z,97468.23
2017-11-10T15:26:39.693Z,97461.14
2017-11-10T15:29:07.984Z,97456.89
2017-11-10T15:31:36.264Z,97458.91
2017-11-10T15:34:04.553Z,97457.33
2017-11-10T15:36:32.865Z,97458.56
2017-11-10T15:39:01.159Z,97452.98
2017-11-10T15:41:32.386Z,97467.56
2017-11-10T15:44:00.669Z,97471.00
2017-11-10T15:46:28.986Z,97481.55
2017-11-10T15:48:57.277Z,97484.52
2017-11-10T15:51:25.556Z,97499.27
2017-11-10T15:53:53.842Z,97522.02
2017-11-10T15:56:22.129Z,97541.11
2017-11-10T15:58:51.174Z,97545.11
2017-11-10T16:01:19.454Z,97510.45
2017-11-10T16:03:47.738Z,97511.62
2017-11-10T16:06:16.055Z,97521.54
2017-11-10T16:08:45.101Z,97506.85
2017-11-10T16:11:14.227Z,97527.06
2017-11-10T16:13:42.492Z,97539.83
2017-11-10T16:16:10.760Z,97544.48
2017-11-10T16:18:39.037Z,97552.23
2017-11-10T16:21:07.313Z,97543.28
2017-11-10T16:23:35.650Z,97544.20
2017-11-10T16:26:04.094Z,97544.68
2017-11-10T16:28:32.728Z,97552.32
2017-11-10T16:31:01.059Z,97566.52
2017-11-10T16:33:29.494Z,97563.91
2017-11-10T16:35:58.202Z,97567.58
2017-11-10T16:38:26.606Z,97569.48
2017-11-10T16:40:55.338Z,97581.39
2017-11-10T16:43:23.850Z,97612.47
2017-11-10T16:45:52.122Z,97617.67
2017-11-10T16:48:20.600Z,97617.31
2017-11-10T16:50:48.987Z,97627.53
2017-11-10T16:53:17.286Z,97634.37
2017-11-10T16:55:45.572Z,97646.67
2017-11-10T16:58:13.874Z,97635.99
2017-11-10T17:00:42.165Z,97639.84
2017-11-10T17:03:10.466Z,97630.92
2017-11-10T17:05:38.757Z,97633.05
2017-11-10T17:08:07.093Z,97615.65
2017-11-10T17:10:35.380Z,97634.28
2017-11-10T17:13:03.681Z,97631.31
2017-11-10T17:15:31.949Z,97646.64
2017-11-10T17:18:00.322Z,97649.64
2017-11-10T17:20:28.601Z,97659.34
2017-11-10T17:22:56.949Z,97658.09
2017-11-10T17:25:25.223Z,97665.30
2017-11-10T17:27:53.534Z,97672.98
2017-11-10T17:30:21.820Z,97666.19
2017-11-10T17:32:53.077Z,97660.25
2017-11-10T17:35:21.356Z,97680.66
2017-11-10T17:37:49.638Z,97686.98
2017-11-10T17:40:17.947Z,97687.42
2017-11-10T17:42:46.308Z,97695.09
2017-11-10T17:45:14.652Z,97689.56
2017-11-10T17:47:43.015Z,97695.95
2017-11-10T17:50:11.344Z,97689.95
2017-11-10T17:52:40.377Z,97689.99
2017-11-10T17:55:08.970Z,97700.51
2017-11-10T17:57:38.166Z,97695.52
2017-11-10T18:00:06.496Z,97706.06
2017-11-10T18:02:34.795Z,97708.22
2017-11-10T18:05:03.869Z,97698.82
2017-11-10T18:07:32.168Z,97696.70
2017-11-10T18:10:00.529Z,97698.01
2017-11-10T18:12:28.806Z,97706.11
2017-11-10T18:14:57.107Z,97705.63
2017-11-10T18:17:25.597Z,97709.00
2017-11-10T18:19:53.877Z,97720.86
2017-11-10T18:22:22.157Z,97721.21
2017-11-10T18:24:50.443Z,97726.28
2017-11-10T18:27:18.753Z,97730.48
2017-11-10T18:29:47.043Z,97734.75
2017-11-10T18:32:15.982Z,97743.16
2017-11-10T18:34:44.282Z,97740.33
2017-11-10T18:37:12.582Z,97735.13
2017-11-10T18:39:40.902Z,97734.27
2017-11-10T18:42:09.402Z,97731.34
2017-11-10T18:44:38.852Z,97743.60
2017-11-10T18:47:07.874Z,97745.77
2017-11-10T18:49:36.193Z,97751.61
2017-11-10T18:52:04.567Z,97748.27
2017-11-10T18:54:33.755Z,97741.98
2017-11-10T18:57:02.304Z,97749.55
2017-11-10T18:59:30.691Z,97752.69
2017-11-10T19:01:59.358Z,97753.50
2017-11-10T19:04:27.892Z,97742.83
2017-11-10T19:06:57.431Z,97746.67
2017-11-10T19:09:26.247Z,97743.38
2017-11-10T19:11:54.825Z,97744.28
2017-11-10T19:14:23.295Z,97745.52
2017-11-10T19:16:52.311Z,97749.64
2017-11-10T19:19:21.424Z,97749.77
2017-11-10T19:21:50.526Z,97753.13
2017-11-10T19:24:19.845Z,97755.30
2017-11-10T19:26:49.048Z,97761.27
2017-11-10T19:29:18.891Z,97762.38
2017-11-10T19:31:48.684Z,97764.98
2017-11-10T19:34:18.619Z,97761.27
2017-11-10T19:36:48.632Z,97769.39
2017-11-10T19:39:18.402Z,97771.48
2017-11-10T19:41:48.102Z,97767.65
2017-11-10T19:44:17.939Z,97771.00
2017-11-10T19:46:47.824Z,97780.31
2017-11-10T19:49:17.647Z,97783.59
2017-11-10T19:51:47.479Z,97784.54
2017-11-10T19:54:17.360Z,97788.63
2017-11-10T19:56:47.418Z,97788.67
2017-11-10T19:59:18.025Z,97796.88
2017-11-10T20:01:47.872Z,97791.54
2017-11-10T20:04:18.299Z,97790.27
2017-11-10T20:06:48.104Z,97783.97
2017-11-10T20:09:19.086Z,97780.66
2017-11-10T20:11:48.951Z,97783.14
2017-11-10T20:14:18.834Z,97798.92
2017-11-10T20:16:48.664Z,97785.28
2017-11-10T20:19:18.508Z,97779.75
2017-11-10T20:21:49.075Z,97783.55
2017-11-10T20:24:18.868Z,97792.26
2017-11-10T20:26:48.775Z,97778.83
2017-11-10T20:29:19.264Z,97783.00
2017-11-10T20:31:49.265Z,97777.98
2017-11-10T20:34:19.134Z,97787.70
2017-11-10T20:36:48.838Z,97785.20
2017-11-10T20:39:20.097Z,97783.14
2017-11-10T20:41:49.902Z,97778.51
2017-11-10T20:44:19.643Z,97786.52
2017-11-10T20:46:49.870Z,97787.34
2017-11-10T20:49:19.699Z,97782.17
2017-11-10T20:51:49.508Z,97783.05
2017-11-10T20:54:19.290Z,97789.02
2017-11-10T20:56:49.812Z,97785.20
2017-11-10T20:59:20.349Z,97789.81
2017-11-10T21:01:50.120Z,97788.56
2017-11-10T21:04:20.703Z,97793.63
2017-11-10T21:06:50.552Z,97792.73
2017-11-10T21:09:21.103Z,97790.19
2017-11-10T21:11:51.705Z,97786.75
2017-11-10T21:14:21.518Z,97785.92
2017-11-10T21:16:51.718Z,97786.84
2017-11-10T21:19:21.924Z,97788.09
2017-11-10T21:21:51.685Z,97789.80
2017-11-10T21:24:21.384Z,97795.63
2017-11-10T21:26:51.327Z,97790.28
2017-11-10T21:29:22.261Z,97791.52
2017-11-10T21:31:52.128Z,97791.11
2017-11-10T21:34:21.934Z,97789.06
2017-11-10T21:36:51.726Z,97788.12
2017-11-10T21:39:22.293Z,97793.18
2017-11-10T21:41:52.191Z,97783.44
2017-11-10T21:44:21.843Z,97788.62
2017-11-10T21:46:51.516Z,97797.92
2017-11-10T21:49:21.929Z,97787.00
2017-11-10T21:51:51.596Z,97783.72
2017-11-10T21:54:21.103Z,97781.75
2017-11-10T21:56:51.205Z,97790.24
2017-11-10T21:59:19.580Z,97795.88
2017-11-10T22:01:47.875Z,97789.51
2017-11-10T22:04:16.245Z,97790.73
2017-11-10T22:06:45.424Z,97784.84
2017-11-10T22:09:13.744Z,97796.70
2017-11-10T22:11:42.034Z,97793.35
2017-11-10T22:14:10.316Z,97800.19
2017-11-10T22:16:38.584Z,97799.24
2017-11-10T22:19:06.888Z,97805.18
2017-11-10T22:21:35.173Z,97810.33
2017-11-10T22:24:04.208Z,97811.21
2017-11-10T22:26:32.512Z,97807.41
2017-11-10T22:29:00.801Z,97806.16
2017-11-10T22:31:29.076Z,97813.78
2017-11-10T22:33:57.368Z,97802.34
2017-11-10T22:36:26.423Z,97796.36
2017-11-10T22:38:54.692Z,97787.44
2017-11-10T22:41:23.937Z,97785.84
2017-11-10T22:43:52.212Z,97785.05
2017-11-10T22:46:20.496Z,97793.86
2017-11-10T22:48:50.825Z,97787.08
2017-11-10T22:51:19.100Z,97797.73
2017-11-10T22:53:48.142Z,97786.36
2017-11-10T22:56:16.418Z,97797.27
2017-11-10T22:58:44.702Z,97790.03
2017-11-10T23:01:12.989Z,97792.90
2017-11-10T23:03:41.270Z,97793.88
2017-11-10T23:06:09.534Z,97781.64
2017-11-10T23:08:37.806Z,97789.23
2017-11-10T23:11:06.078Z,97792.63
2017-11-10T23:13:34.334Z,97790.98
2017-11-10T23:16:02.599Z,97791.45
2017-11-10T23:18:30.882Z,97794.41
2017-11-10T23:20:59.157Z,97790.66
2017-11-10T23:23:27.455Z,97782.18
2017-11-10T23:25:55.753Z,97788.09
2017-11-10T23:28:24.078Z,97804.17
2017-11-10T23:30:52.368Z,97803.28
2017-11-10T23:33:20.645Z,97801.55
2017-11-10T23:35:48.938Z,97798.20
2017-11-10T23:38:17.217Z,97807.18
2017-11-10T23:40:45.497Z,97804.20
2017-11-10T23:43:13.782Z,97809.34
2017-11-10T23:45:42.089Z,97803.42
2017-11-10T23:48:10.981Z,97797.41
2017-11-10T23:50:39.266Z,97792.20
2017-11-10T23:53:08.310Z,97791.82
2017-11-10T23:55:36.590Z,97785.88
2017-11-10T23:58:04.880Z,97774.78
